Station: Kangaroo Flats (Defence)

  Atmospheric Gas Attenuation - ITU Rec 676-11   --------------- db/100km ---------------
Date Time Temp RH % AH g/m3 Dew Point Wind Direction Speed kph Gust kph Barometer mB Rainfall Since 9am 24GHz 47GHz 76GHz 122GHz 134GHz 241GHz
11 22:30 27.1 80 20.7 23.3 0 0 1013.1 0 44.3 42.2 83.0 219.8 244.6 849.8
11 22:20 27.1 80 20.7 23.3 0 0 1013.1 0 44.3 42.2 83.0 219.8 244.6 849.8
11 22:10 27.1 80 20.7 23.3 0 0 1013.1 0 44.3 42.2 83.0 219.8 244.6 849.8
11 22:00 27.2 82 21.34 23.9 2 4 1013.1 0 45.7 43.4 86.0 227.7 254.3 883.6
11 21:50 27.2 83 21.6 24 0 0 1013.1 0 46.2 43.9 87.3 231.1 258.4 898.0
11 21:40 27.4 85 22.37 24.6 0 0 1013.1 0 47.8 45.4 90.9 240.6 270.1 938.5
11 21:30 27.5 86 22.75 24.9 2 6 1013.1 0 48.6 46.1 92.6 245.3 275.9 958.7
11 21:20 27.6 86 22.88 25 4 6 1013.1 0 48.9 46.3 93.2 246.7 277.6 964.8
11 21:10 27.4 86 22.63 24.8 2 2 1013.1 0 48.4 45.9 92.1 244.0 274.3 953.2
11 21:00 27.6 85 22.61 24.8 2 6 1013.1 0 48.3 45.7 91.8 243.1 273.2 949.5
11 20:50 27.7 85 22.74 24.9 2 4 1013.1 0 48.6 45.9 92.3 244.5 275.0 955.6
11 20:40 27.6 85 22.61 24.8 0 0 1013.1 0 48.3 45.7 91.8 243.1 273.2 949.5
11 20:30 27.9 85 22.99 25.1 0 0 1013.1 0 49.1 46.3 93.3 247.1 278.3 967.1
11 20:20 27.9 83 22.45 24.7 0 0 1013.1 0 47.9 45.2 90.6 240.0 269.5 936.7
11 20:10 27.9 84 22.72 24.9 0 0 1013.1 0 48.5 45.8 92.0 243.6 273.9 951.9
11 20:00 28.2 82 22.55 24.8 0 0 1013.1 0 48.1 45.3 90.8 240.3 270.1 938.6
11 19:50 27.8 81 21.79 24.2 0 0 1013.1 0 46.6 44.0 87.5 231.7 259.4 901.3
11 19:40 28.2 80 22 24.4 0 0 1013.1 0 47.0 44.2 88.1 233.2 261.3 908.1
11 19:30 28.7 78 22.04 24.5 0 0 1013.1 0 47.0 44.0 87.7 232.2 260.2 904.2
11 19:20 28.9 76 21.71 24.4 0 0 1013.1 0 46.3 43.3 85.9 227.3 254.3 883.9
11 19:10 29.3 73 21.32 24.1 0 0 1013.1 0 45.4 42.3 83.6 221.2 246.9 858.3
11 19:00 29.4 74 21.73 24.3 4 7 1013.1 0 46.2 43.0 85.4 226.1 252.9 879.1
11 18:50 29.6 73 21.67 24.2 6 7 1013.1 0 46.1 42.8 84.9 224.7 251.3 873.6
11 18:40 30 72 21.84 24.4 4 6 1013.1 0 46.4 42.9 85.2 225.7 252.6 878.1
11 18:30 30.2 73 22.38 24.8 6 9 1013.1 0 47.5 43.9 87.6 231.9 260.2 904.7
11 18:20 30.5 71 22.12 24.8 6 7 1013.1 0 46.9 43.2 86.0 227.7 255.2 887.2
11 18:10 30.7 70 22.05 24.6 9 13 1013.1 0 46.8 43.0 85.4 226.2 253.4 881.1
11 18:00 31.3 68 22.12 24.7 4 9 1013.1 0 46.8 42.8 85.1 225.3 252.5 877.9
11 17:50 31.2 69 22.33 24.8 7 11 1013.1 0 47.3 43.2 86.2 228.2 256.0 890.2
11 17:40 31.3 65 21.14 24.1 7 9 1013.1 0 44.8 41.0 80.6 213.3 237.7 826.7
11 17:30 31.8 62 20.72 23.6 7 15 1013.1 0 43.8 40.0 78.2 206.9 230.0 799.9
11 17:20 32.5 59 20.46 23.7 4 4 1013.1 0 43.2 39.2 76.3 202.0 224.1 779.6
11 17:10 32.7 56 19.63 23 6 11 1013.1 0 41.5 37.6 72.5 191.8 211.8 736.6
11 17:00 32.8 56 19.73 22.9 7 17 1013.1 0 41.7 37.8 72.8 192.7 212.9 740.5
11 16:50 32.6 55 19.18 22.6 6 7 1013.1 0 40.6 36.9 70.7 187.0 205.8 715.6
11 16:40 32.8 54 19.03 22.5 7 13 1013.1 0 40.2 36.6 69.8 184.8 203.1 706.5
11 16:30 33.2 59 21.23 24.1 9 20 1013.1 0 44.7 40.2 79.0 209.2 233.1 811.0
11 16:20 33.7 58 21.43 24.5 6 13 1013.1 0 45.1 40.3 79.4 210.2 234.5 815.8
11 16:10 33.9 58 21.66 24.7 7 11 1013.1 0 45.6 40.7 80.2 212.3 237.2 825.2
11 16:00 34 56 21.02 24 6 9 1013.1 0 44.2 39.5 77.3 204.5 227.7 792.1
11 15:50 33.6 56 20.58 23.6 6 7 1013.1 0 43.4 38.9 75.7 200.5 222.6 774.4
11 15:40 34.2 52 19.73 23.2 9 11 1013.1 0 41.5 37.2 71.5 189.3 209.0 727.3
11 15:30 35 49 19.38 23 6 13 1013.1 0 40.7 36.2 69.3 183.5 202.1 703.3
11 15:20 36 47 19.58 23.2 6 7 1013.1 0 41.0 36.1 69.3 183.4 202.2 703.7
11 15:10 35.9 43 17.82 21.7 4 4 1013.1 0 37.4 33.3 62.3 164.8 179.4 624.1
11 15:00 34.8 42 16.44 20 6 9 1013.1 0 34.7 31.6 57.8 152.7 164.2 571.2
11 14:50 35.7 44 18.05 21.9 4 6 1013.1 0 37.9 33.8 63.4 167.6 182.8 636.0
11 14:40 35.1 46 18.29 22 6 6 1013.1 0 38.5 34.4 64.8 171.5 187.4 651.8
11 14:30 35 46 18.19 22 7 15 1013.1 0 38.3 34.3 64.5 170.6 186.3 648.1
11 14:20 35.6 47 19.18 22.8 4 6 1013.1 0 40.2 35.6 68.0 179.9 197.9 688.6
11 14:10 34.8 49 19.18 22.8 9 13 1013.1 0 40.3 36.0 68.7 181.8 200.0 695.7
11 14:00 35 49 19.38 23 6 13 1013.1 0 40.7 36.2 69.3 183.5 202.1 703.3
11 13:50 34.9 48 18.89 22.5 2 4 1013.1 0 39.7 35.5 67.4 178.4 195.8 681.2
11 13:40 36 39 16.25 20.2 4 6 1013.1 0 34.2 30.9 56.2 148.5 159.4 554.5
11 13:30 35.2 38 15.19 19.1 4 9 1013.1 0 32.1 29.5 52.8 139.4 148.0 514.6
11 13:20 36.4 38 16.16 20.2 4 6 1013.1 0 34.0 30.6 55.6 146.9 157.5 547.9
11 13:10 35.8 41 16.91 20.8 2 4 1013.1 0 35.6 31.9 58.8 155.6 168.0 584.5
11 13:00 34.8 46 18.01 21.5 4 9 1013.1 0 37.9 34.1 63.9 169.1 184.4 641.5
11 12:50 34.7 47 18.3 22 4 4 1013.1 0 38.5 34.6 65.2 172.4 188.5 655.6
11 12:40 34.6 46 17.82 21.6 6 6 1013.1 0 37.5 33.8 63.3 167.5 182.4 634.4
11 12:30 35.2 42 16.79 20.7 4 9 1013.1 0 35.4 32.0 58.8 155.5 167.8 583.7
11 12:20 35.4 43 17.37 21.2 7 9 1013.1 0 36.5 32.8 60.9 161.1 174.7 607.9
11 12:10 35 46 18.19 22 4 6 1013.1 0 38.3 34.3 64.5 170.6 186.3 648.1
11 12:00 34.7 48 18.69 22.1 6 9 1013.1 0 39.3 35.2 66.8 176.7 193.6 673.6
11 11:50 34 50 18.77 22.1 4 4 1013.1 0 39.6 35.6 67.7 179.1 196.5 683.5
11 11:40 34.1 49 18.49 22.1 4 4 1013.1 0 39.0 35.1 66.5 175.8 192.5 669.5
11 11:30 33.5 51 18.65 22 4 6 1013.1 0 39.4 35.6 67.6 178.9 196.1 682.2
11 11:20 33 52 18.52 22.1 6 6 1013.1 0 39.1 35.6 67.5 178.6 195.6 680.4
11 11:10 33.2 54 19.43 22.9 4 6 1013.1 0 41.0 37.1 71.2 188.3 207.6 722.1
11 11:00 33.3 56 20.26 23.6 2 4 1013.1 0 42.7 38.5 74.6 197.6 219.0 761.6
11 10:50 32.9 57 20.19 23.5 0 0 1013.1 0 42.6 38.5 74.7 197.8 219.1 762.1
11 10:40 33.3 56 20.26 23.6 4 4 1013.1 0 42.7 38.5 74.6 197.6 219.0 761.6
11 10:30 32.7 56 19.63 22.8 0 2 1013.1 0 41.5 37.6 72.5 191.8 211.8 736.6
11 10:20 32.4 56 19.32 22.7 2 4 1013.1 0 40.9 37.2 71.4 189.0 208.3 724.3
11 10:10 31.6 62 20.49 23.6 0 0 1013.1 0 43.4 39.7 77.3 204.7 227.3 790.3
11 10:00 31.3 66 21.47 24.2 4 7 1013.1 0 45.5 41.6 82.1 217.3 242.7 843.8
11 09:50 30.9 68 21.65 24.3 4 4 1013.1 0 45.9 42.1 83.3 220.7 246.7 857.7
11 09:40 31 72 23.05 25.5 4 4 1013.1 0 48.8 44.7 89.8 237.9 267.8 931.3
11 09:30 29.9 75 22.63 25 4 7 1013.1 0 48.1 44.5 89.1 236.0 265.2 921.9
11 09:20 29.9 76 22.93 25.2 6 7 1013.1 0 48.7 45.1 90.6 239.9 269.9 938.4
11 09:10 30 73 22.14 24.8 2 4 1013.1 0 47.0 43.5 86.7 229.5 257.2 894.2
11 09:00 29.4 74 21.73 24.3 2 4 1013.1 0 46.2 43.0 85.4 226.1 252.9 879.1
11 08:50 29.6 73 21.67 24.4 0 0 1013.1 0 46.1 42.8 84.9 224.7 251.3 873.6
11 08:40 28.5 75 20.96 23.8 4 4 1013.1 0 44.7 42.0 82.7 219.0 244.0 848.1
11 08:30 28.6 78 21.92 24.4 0 0 1013.1 0 46.7 43.8 87.2 230.9 258.6 898.9
11 08:20 27.1 84 21.74 24.1 0 0 1013.1 0 46.5 44.3 88.1 233.2 261.0 907.0
11 08:10 27.1 87 22.52 24.7 0 0 1013.1 0 48.2 45.8 92.0 243.5 273.6 950.8
11 08:00 26.4 92 22.9 25 0 0 1013.1 0 49.1 47.0 94.8 250.9 282.5 981.6
11 07:50 25.2 94 21.88 24.1 0 0 1013.1 0 47.1 45.6 91.1 241.1 270.1 938.4
11 07:40 24.5 94 21.04 23.4 0 0 1013.1 0 45.4 44.3 87.7 232.1 258.8 899.0
11 07:30 24.2 94 20.68 23.2 0 0 1013.1 0 44.6 43.7 86.2 228.2 254.0 882.2
11 07:20 24 94 20.45 22.9 0 0 1013.1 0 44.2 43.4 85.3 225.8 250.9 871.5
11 07:10 23.9 93 20.12 22.7 0 0 1013.1 0 43.5 42.8 83.8 221.7 245.9 854.1
11 07:00 23.9 93 20.12 22.7 0 0 1013.1 0 43.5 42.8 83.8 221.7 245.9 854.1
11 06:50 24 93 20.23 22.8 0 0 1013.1 0 43.7 42.9 84.2 222.9 247.4 859.1
11 06:40 24 93 20.23 22.8 0 0 1013.1 0 43.7 42.9 84.2 222.9 247.4 859.1
11 06:30 24 93 20.23 22.8 0 0 1013.1 0 43.7 42.9 84.2 222.9 247.4 859.1
11 06:20 24.1 93 20.35 22.9 0 0 1013.1 0 43.9 43.1 84.7 224.1 249.0 864.7
11 06:10 24.1 93 20.35 22.9 0 0 1013.1 0 43.9 43.1 84.7 224.1 249.0 864.7
11 06:00 24.1 93 20.35 22.9 0 0 1013.1 0 43.9 43.1 84.7 224.1 249.0 864.7

Last Refresh: 11-Apr-2021 22:38:20

Bureau of Meteorology